Time;durP1;ratioP1;P1;durP2;ratioP2;P2;SDS_P1;SDS_P2;PMS_P1;PMS_P2;Temp;Humidity;BMP_temperature;BMP_pressure;BME280_temperature;BME280_humidity;BME280_pressure;Samples;Min_cycle;Max_cycle;Signal;HPM_P1;HPM_P2
2024/01/22 00:00:49;;;;;;;;;;;20.60;29.00;;;;;;5053281;28;19979;-54
2024/01/22 00:03:17;;;;;;;;;;;20.60;29.00;;;;;;5053377;28;20419;-55
2024/01/22 00:05:44;;;;;;;;;;;20.60;29.00;;;;;;5035591;28;20012;-51
2024/01/22 00:08:12;;;;;;;;;;;20.60;29.00;;;;;;5053374;28;20023;-55
2024/01/22 00:10:38;;;;;;;;;;;20.60;29.10;;;;;;5035720;28;20028;-54
2024/01/22 00:13:05;;;;;;;;;;;20.60;29.00;;;;;;5053478;28;19928;-56
2024/01/22 00:15:32;;;;;;;;;;;20.60;29.10;;;;;;5053251;28;20297;-54
2024/01/22 00:18:00;;;;;;;;;;;20.50;29.00;;;;;;5053153;28;19925;-55
2024/01/22 00:20:27;;;;;;;;;;;20.50;29.10;;;;;;5053443;28;20393;-53
2024/01/22 00:22:54;;;;;;;;;;;20.50;29.10;;;;;;5053033;28;19925;-54
2024/01/22 00:25:22;;;;;;;;;;;20.50;29.10;;;;;;5053044;28;20368;-55
2024/01/22 00:27:49;;;;;;;;;;;20.50;29.10;;;;;;5053119;28;19931;-53
2024/01/22 00:30:16;;;;;;;;;;;20.50;29.10;;;;;;5053167;28;20370;-56
2024/01/22 00:32:43;;;;;;;;;;;20.50;29.00;;;;;;5053251;28;19924;-55
2024/01/22 00:35:11;;;;;;;;;;;20.50;29.10;;;;;;5053016;28;19932;-56
2024/01/22 00:37:38;;;;;;;;;;;20.50;29.10;;;;;;5052798;28;19933;-53
2024/01/22 00:40:05;;;;;;;;;;;20.50;29.10;;;;;;5053167;28;19925;-56
2024/01/22 00:42:32;;;;;;;;;;;20.50;29.10;;;;;;5053215;28;19971;-54
2024/01/22 00:44:59;;;;;;;;;;;20.50;29.10;;;;;;5052648;28;20415;-55
2024/01/22 00:47:27;;;;;;;;;;;20.50;29.10;;;;;;5060274;28;19932;-55
2024/01/22 00:49:54;;;;;;;;;;;20.60;29.10;;;;;;5060796;28;19932;-57
2024/01/22 00:52:20;;;;;;;;;;;20.60;29.00;;;;;;5053052;28;20259;-55
2024/01/22 00:54:47;;;;;;;;;;;20.60;29.00;;;;;;5052650;28;19925;-54
2024/01/22 00:57:14;;;;;;;;;;;20.60;28.90;;;;;;5053125;28;19929;-56
2024/01/22 00:59:41;;;;;;;;;;;20.60;29.00;;;;;;5052387;28;20019;-52
2024/01/22 01:02:08;;;;;;;;;;;20.50;28.90;;;;;;5053027;28;19932;-56
2024/01/22 01:04:35;;;;;;;;;;;20.50;29.00;;;;;;5056073;28;19926;-56
2024/01/22 01:07:03;;;;;;;;;;;20.50;29.00;;;;;;5056215;28;19924;-54
2024/01/22 01:09:29;;;;;;;;;;;20.50;29.00;;;;;;5056141;28;19978;-56
2024/01/22 01:11:56;;;;;;;;;;;20.50;29.00;;;;;;5056509;28;19963;-55
2024/01/22 01:14:24;;;;;;;;;;;20.50;29.00;;;;;;5055718;28;19931;-54
2024/01/22 01:16:52;;;;;;;;;;;20.50;29.00;;;;;;5056300;28;20343;-57
2024/01/22 01:19:19;;;;;;;;;;;20.40;29.00;;;;;;5055856;28;19982;-55
2024/01/22 01:21:46;;;;;;;;;;;20.40;29.00;;;;;;5056209;28;19960;-56
2024/01/22 01:24:13;;;;;;;;;;;20.40;29.00;;;;;;5055959;28;19931;-55
2024/01/22 01:26:41;;;;;;;;;;;20.40;29.00;;;;;;5055661;28;19925;-56
2024/01/22 01:29:08;;;;;;;;;;;20.40;29.00;;;;;;5055772;28;19929;-52
2024/01/22 01:31:35;;;;;;;;;;;20.40;29.10;;;;;;5055750;28;19925;-56
2024/01/22 01:34:03;;;;;;;;;;;20.40;29.00;;;;;;5056069;28;19925;-56
2024/01/22 01:36:31;;;;;;;;;;;20.40;29.00;;;;;;5055765;28;19960;-55
2024/01/22 01:38:57;;;;;;;;;;;20.40;29.00;;;;;;5055897;28;19925;-55
2024/01/22 01:41:24;;;;;;;;;;;20.40;29.00;;;;;;5055217;28;19924;-56
2024/01/22 01:43:51;;;;;;;;;;;20.40;29.10;;;;;;5055921;28;19925;-55
2024/01/22 01:46:18;;;;;;;;;;;20.40;29.10;;;;;;5067993;28;19935;-53
2024/01/22 01:48:45;;;;;;;;;;;20.40;29.10;;;;;;5075519;28;20027;-53
2024/01/22 01:51:13;;;;;;;;;;;20.40;29.00;;;;;;5075537;28;19924;-54
2024/01/22 01:53:40;;;;;;;;;;;20.40;29.10;;;;;;5075348;28;19925;-56
2024/01/22 01:56:07;;;;;;;;;;;20.30;29.10;;;;;;5075633;28;19978;-55
2024/01/22 01:58:34;;;;;;;;;;;20.40;29.10;;;;;;5075600;28;19924;-55
2024/01/22 02:01:01;;;;;;;;;;;20.50;29.10;;;;;;5075624;28;19924;-55
2024/01/22 02:03:28;;;;;;;;;;;20.50;29.00;;;;;;5075370;28;19971;-55
2024/01/22 02:05:55;;;;;;;;;;;20.50;29.00;;;;;;5072365;28;20389;-56
2024/01/22 02:08:22;;;;;;;;;;;20.40;28.90;;;;;;5075100;28;20443;-53
2024/01/22 02:10:49;;;;;;;;;;;20.40;28.90;;;;;;5075092;28;19950;-52
2024/01/22 02:13:16;;;;;;;;;;;20.40;28.90;;;;;;5075203;28;20266;-54
2024/01/22 02:15:43;;;;;;;;;;;20.40;28.90;;;;;;5074274;28;19931;-52
2024/01/22 02:18:11;;;;;;;;;;;20.40;29.00;;;;;;5074790;28;19925;-54
2024/01/22 02:20:38;;;;;;;;;;;20.40;29.00;;;;;;5075251;28;19928;-54
2024/01/22 02:23:06;;;;;;;;;;;20.40;29.00;;;;;;5075193;28;19968;-54
2024/01/22 02:25:33;;;;;;;;;;;20.40;28.90;;;;;;5074668;28;20409;-54
2024/01/22 02:28:00;;;;;;;;;;;20.30;28.90;;;;;;5074232;28;19931;-51
2024/01/22 02:30:26;;;;;;;;;;;20.30;28.90;;;;;;5074982;28;19929;-56
2024/01/22 02:32:53;;;;;;;;;;;20.30;29.00;;;;;;5074842;28;19924;-54
2024/01/22 02:35:21;;;;;;;;;;;20.30;29.00;;;;;;5074228;28;19932;-55
2024/01/22 02:37:49;;;;;;;;;;;20.30;29.00;;;;;;5074363;28;19939;-55
2024/01/22 02:42:42;;;;;;;;;;;20.30;28.90;;;;;;5074359;28;19924;-55
2024/01/22 02:45:10;;;;;;;;;;;20.30;29.00;;;;;;5073343;28;20411;-55
2024/01/22 02:47:37;;;;;;;;;;;20.30;28.90;;;;;;5074448;28;19925;-54
2024/01/22 02:50:04;;;;;;;;;;;20.30;29.00;;;;;;5072997;28;20346;-53
2024/01/22 02:52:31;;;;;;;;;;;20.30;29.00;;;;;;5074305;28;19925;-52
2024/01/22 02:54:58;;;;;;;;;;;20.30;29.00;;;;;;5074214;28;19925;-53
2024/01/22 02:57:25;;;;;;;;;;;20.30;29.00;;;;;;5074055;28;19932;-56
2024/01/22 02:59:52;;;;;;;;;;;20.30;28.90;;;;;;5073642;28;20443;-55
2024/01/22 03:02:19;;;;;;;;;;;20.30;29.00;;;;;;5073981;28;19929;-55
2024/01/22 03:04:46;;;;;;;;;;;20.30;29.00;;;;;;5073892;28;19968;-53
2024/01/22 03:07:13;;;;;;;;;;;20.30;29.00;;;;;;5073786;28;19924;-54
2024/01/22 03:09:40;;;;;;;;;;;20.40;29.00;;;;;;5073507;28;20377;-55
2024/01/22 03:12:06;;;;;;;;;;;20.40;28.90;;;;;;5074095;28;19931;-59
2024/01/22 03:14:34;;;;;;;;;;;20.40;28.90;;;;;;5074113;28;20036;-55
2024/01/22 03:17:01;;;;;;;;;;;20.40;28.90;;;;;;5073404;28;20420;-55
2024/01/22 03:19:28;;;;;;;;;;;20.40;28.90;;;;;;5073204;28;19924;-56
2024/01/22 03:21:55;;;;;;;;;;;20.30;28.80;;;;;;5075563;28;19932;-61
2024/01/22 03:24:22;;;;;;;;;;;20.30;28.80;;;;;;5080081;28;19925;-61
2024/01/22 03:26:49;;;;;;;;;;;20.30;28.90;;;;;;5079776;28;19931;-61
2024/01/22 03:29:16;;;;;;;;;;;20.30;28.80;;;;;;5079736;28;19930;-60
2024/01/22 03:31:43;;;;;;;;;;;20.30;28.80;;;;;;5080703;28;19925;-56
2024/01/22 03:34:10;;;;;;;;;;;20.30;28.90;;;;;;5073818;28;19925;-52
2024/01/22 03:36:37;;;;;;;;;;;20.30;28.90;;;;;;5073563;28;19925;-56
2024/01/22 03:39:04;;;;;;;;;;;20.30;28.90;;;;;;5073630;28;19925;-55
2024/01/22 03:41:31;;;;;;;;;;;20.30;28.90;;;;;;5073447;28;19982;-56
2024/01/22 03:43:58;;;;;;;;;;;20.30;28.90;;;;;;5073372;28;19947;-55
2024/01/22 03:46:25;;;;;;;;;;;20.30;28.90;;;;;;5073664;28;19970;-56
2024/01/22 03:48:52;;;;;;;;;;;20.30;28.90;;;;;;5073302;28;19924;-56
2024/01/22 03:51:19;;;;;;;;;;;20.20;28.90;;;;;;5073281;28;19935;-53
2024/01/22 03:53:46;;;;;;;;;;;20.20;28.90;;;;;;5073185;28;19976;-55
2024/01/22 03:56:13;;;;;;;;;;;20.20;28.90;;;;;;5073535;28;19925;-52
2024/01/22 03:58:40;;;;;;;;;;;20.20;28.90;;;;;;5073372;28;19924;-54
2024/01/22 04:01:07;;;;;;;;;;;20.20;28.90;;;;;;5073123;28;20377;-55
2024/01/22 04:03:35;;;;;;;;;;;20.20;28.90;;;;;;5073283;28;19928;-53
2024/01/22 04:06:03;;;;;;;;;;;20.20;29.00;;;;;;5073052;28;20007;-55
2024/01/22 04:08:30;;;;;;;;;;;20.20;28.90;;;;;;5073375;28;19924;-55
2024/01/22 04:10:57;;;;;;;;;;;20.20;29.00;;;;;;5073581;28;19928;-53
2024/01/22 04:13:24;;;;;;;;;;;20.20;29.00;;;;;;5073302;28;19924;-56
2024/01/22 04:16:01;;;;;;;;;;;20.20;28.90;;;;;;5072887;28;19924;-55
2024/01/22 04:20:55;;;;;;;;;;;20.30;28.90;;;;;;5073241;28;19925;-54
2024/01/22 04:23:22;;;;;;;;;;;20.30;28.90;;;;;;5073228;28;20011;-57
2024/01/22 04:25:50;;;;;;;;;;;20.30;28.90;;;;;;5072928;28;20133;-56
2024/01/22 04:28:16;;;;;;;;;;;20.30;28.80;;;;;;5073065;28;20078;-54
2024/01/22 04:30:43;;;;;;;;;;;20.30;28.80;;;;;;5072758;28;20377;-53
2024/01/22 04:33:13;;;;;;;;;;;20.30;28.80;;;;;;5073142;28;19924;-51
2024/01/22 04:35:40;;;;;;;;;;;20.20;28.80;;;;;;5072549;28;19975;-53
2024/01/22 04:38:07;;;;;;;;;;;20.20;28.80;;;;;;5074161;28;19924;-55
2024/01/22 04:40:34;;;;;;;;;;;20.20;28.60;;;;;;5076803;28;19939;-51
2024/01/22 04:43:03;;;;;;;;;;;20.20;28.50;;;;;;5076445;28;19976;-52
2024/01/22 04:45:30;;;;;;;;;;;20.20;28.40;;;;;;5076476;28;19929;-52
2024/01/22 04:47:56;;;;;;;;;;;20.20;28.30;;;;;;5075896;28;19925;-56
2024/01/22 04:50:24;;;;;;;;;;;20.10;28.20;;;;;;5071667;28;19929;-55
2024/01/22 04:52:51;;;;;;;;;;;20.10;28.10;;;;;;5074564;28;20288;-55
2024/01/22 04:55:18;;;;;;;;;;;20.10;28.10;;;;;;5076464;28;19931;-54
2024/01/22 04:57:49;;;;;;;;;;;20.10;28.00;;;;;;5074927;28;19928;-55
2024/01/22 05:00:16;;;;;;;;;;;20.10;27.90;;;;;;5076605;28;19925;-53
2024/01/22 05:02:44;;;;;;;;;;;20.10;27.80;;;;;;5076273;28;20376;-55
2024/01/22 05:05:12;;;;;;;;;;;20.10;27.80;;;;;;5076182;28;19932;-51
2024/01/22 05:07:39;;;;;;;;;;;20.20;27.70;;;;;;5076408;28;19935;-50
2024/01/22 05:10:09;;;;;;;;;;;20.20;27.70;;;;;;5076560;28;19924;-56
2024/01/22 05:12:36;;;;;;;;;;;20.20;27.60;;;;;;5075919;28;19924;-56
2024/01/22 05:15:04;;;;;;;;;;;20.20;27.50;;;;;;5075921;28;19924;-56
2024/01/22 05:17:32;;;;;;;;;;;20.30;27.50;;;;;;5075854;28;20301;-57
2024/01/22 05:19:59;;;;;;;;;;;20.30;27.40;;;;;;5076265;28;20311;-55
2024/01/22 05:22:26;;;;;;;;;;;20.30;27.30;;;;;;5076328;28;20388;-56
2024/01/22 05:24:53;;;;;;;;;;;20.30;27.30;;;;;;5059600;28;19925;-55
2024/01/22 05:27:20;;;;;;;;;;;20.30;27.30;;;;;;5056022;28;19932;-56
2024/01/22 05:29:47;;;;;;;;;;;20.30;27.20;;;;;;5055563;28;19925;-54
2024/01/22 05:32:14;;;;;;;;;;;20.30;27.20;;;;;;5055895;28;19925;-53
2024/01/22 05:34:41;;;;;;;;;;;20.40;27.20;;;;;;5061843;28;19974;-55
2024/01/22 05:37:08;;;;;;;;;;;20.30;27.10;;;;;;5070919;28;19925;-55
2024/01/22 05:39:36;;;;;;;;;;;20.30;27.00;;;;;;5067258;28;19936;-57
2024/01/22 05:42:03;;;;;;;;;;;20.30;27.00;;;;;;5061769;28;19931;-56
2024/01/22 05:44:30;;;;;;;;;;;20.30;27.00;;;;;;5068608;28;20389;-55
2024/01/22 05:46:57;;;;;;;;;;;20.30;27.00;;;;;;5058456;28;19948;-55
2024/01/22 05:49:24;;;;;;;;;;;20.30;27.00;;;;;;5071310;28;19964;-56
2024/01/22 05:51:56;;;;;;;;;;;20.30;27.00;;;;;;5075373;28;19947;-56
2024/01/22 05:54:22;;;;;;;;;;;20.30;27.00;;;;;;5073677;28;20011;-57
2024/01/22 05:56:50;;;;;;;;;;;20.30;27.00;;;;;;5062155;28;19924;-58
2024/01/22 05:59:17;;;;;;;;;;;20.30;26.90;;;;;;5059937;28;19924;-58
2024/01/22 06:01:44;;;;;;;;;;;20.30;26.90;;;;;;5058483;28;19986;-58
2024/01/22 06:04:11;;;;;;;;;;;20.30;26.90;;;;;;5069424;28;19932;-57
2024/01/22 06:06:38;;;;;;;;;;;20.30;27.00;;;;;;5073816;28;19929;-59
2024/01/22 06:09:06;;;;;;;;;;;20.30;27.00;;;;;;5063902;28;20011;-57
2024/01/22 06:11:33;;;;;;;;;;;20.30;27.00;;;;;;5059499;28;19956;-57
2024/01/22 06:14:00;;;;;;;;;;;20.40;27.00;;;;;;5063248;28;19924;-58
2024/01/22 06:16:29;;;;;;;;;;;20.40;27.00;;;;;;5061126;28;20024;-56
2024/01/22 06:18:56;;;;;;;;;;;20.40;27.00;;;;;;5064972;28;20292;-58
2024/01/22 06:21:23;;;;;;;;;;;20.50;27.00;;;;;;5055098;28;19925;-59
2024/01/22 06:23:50;;;;;;;;;;;20.50;27.40;;;;;;5055504;28;19932;-58
2024/01/22 06:26:17;;;;;;;;;;;20.60;27.40;;;;;;5059123;28;19986;-58
2024/01/22 06:28:47;;;;;;;;;;;20.60;27.70;;;;;;5060428;28;19924;-59
2024/01/22 06:31:15;;;;;;;;;;;20.60;28.30;;;;;;5070661;28;20808;-56
2024/01/22 06:33:42;;;;;;;;;;;20.70;28.50;;;;;;5064085;28;20401;-57
2024/01/22 06:36:10;;;;;;;;;;;20.70;28.50;;;;;;5063276;28;19928;-58
2024/01/22 06:38:38;;;;;;;;;;;20.90;28.60;;;;;;5057192;28;19982;-59
2024/01/22 06:41:11;;;;;;;;;;;21.00;28.70;;;;;;5058881;28;19936;-58
2024/01/22 06:43:38;;;;;;;;;;;21.10;29.10;;;;;;5060348;28;19929;-58
2024/01/22 06:46:05;;;;;;;;;;;21.20;28.60;;;;;;5069615;28;19967;-58
2024/01/22 06:48:33;;;;;;;;;;;21.30;28.60;;;;;;5033920;28;19954;-58
2024/01/22 06:51:01;;;;;;;;;;;21.40;28.60;;;;;;5052795;28;19928;-58
2024/01/22 06:53:28;;;;;;;;;;;21.50;28.50;;;;;;5058792;28;19933;-58
2024/01/22 06:55:55;;;;;;;;;;;21.60;28.50;;;;;;5051879;28;19986;-58
2024/01/22 06:58:22;;;;;;;;;;;21.70;28.40;;;;;;5053847;28;19944;-58
2024/01/22 07:00:51;;;;;;;;;;;21.70;28.20;;;;;;5055402;28;20270;-58
2024/01/22 07:03:20;;;;;;;;;;;21.80;28.10;;;;;;5054428;28;19932;-57
2024/01/22 07:05:47;;;;;;;;;;;21.90;28.00;;;;;;5053467;28;19928;-58
2024/01/22 07:08:15;;;;;;;;;;;22.00;28.00;;;;;;5055075;28;19943;-58
2024/01/22 07:10:42;;;;;;;;;;;22.00;28.10;;;;;;5061424;28;19940;-58
2024/01/22 07:13:09;;;;;;;;;;;22.10;28.10;;;;;;5057860;28;19964;-57
2024/01/22 07:15:36;;;;;;;;;;;22.20;28.20;;;;;;5061011;28;19975;-58
2024/01/22 07:18:03;;;;;;;;;;;22.30;28.40;;;;;;5059822;28;19931;-57
2024/01/22 07:20:30;;;;;;;;;;;22.30;28.50;;;;;;5043318;28;19924;-59
2024/01/22 07:22:57;;;;;;;;;;;22.50;28.50;;;;;;5061094;28;20043;-59
2024/01/22 07:25:24;;;;;;;;;;;22.50;28.50;;;;;;5061927;28;19974;-58
2024/01/22 07:27:51;;;;;;;;;;;22.60;28.40;;;;;;5062794;28;19967;-57
2024/01/22 07:30:18;;;;;;;;;;;22.70;28.50;;;;;;5062207;28;19924;-58
2024/01/22 07:32:47;;;;;;;;;;;22.70;28.30;;;;;;5060875;28;19925;-58
2024/01/22 07:35:15;;;;;;;;;;;22.80;28.30;;;;;;5063005;28;20012;-58
2024/01/22 07:37:44;;;;;;;;;;;22.90;28.20;;;;;;5060473;28;19928;-57
2024/01/22 07:40:13;;;;;;;;;;;22.90;28.20;;;;;;5059936;28;20000;-58
2024/01/22 07:42:41;;;;;;;;;;;23.00;28.10;;;;;;5056408;28;19929;-58
2024/01/22 07:45:09;;;;;;;;;;;23.10;28.00;;;;;;5054308;28;20413;-58
2024/01/22 07:47:36;;;;;;;;;;;23.10;28.00;;;;;;5061313;28;20015;-58
2024/01/22 07:50:10;;;;;;;;;;;23.20;27.90;;;;;;5059675;28;19933;-58
2024/01/22 07:52:37;;;;;;;;;;;23.20;27.90;;;;;;5057241;28;20385;-56
2024/01/22 07:55:05;;;;;;;;;;;23.30;27.80;;;;;;5061804;28;19952;-59
2024/01/22 07:57:33;;;;;;;;;;;23.30;27.90;;;;;;5063540;28;20467;-57
2024/01/22 08:00:02;;;;;;;;;;;23.40;27.80;;;;;;5057186;28;19964;-59
2024/01/22 08:02:29;;;;;;;;;;;23.40;28.20;;;;;;5056524;28;20079;-58
2024/01/22 08:04:56;;;;;;;;;;;23.50;27.70;;;;;;5061620;28;19936;-58
2024/01/22 08:07:23;;;;;;;;;;;23.50;27.60;;;;;;5056587;28;20601;-59
2024/01/22 08:09:50;;;;;;;;;;;23.60;27.60;;;;;;5039510;28;20045;-54
2024/01/22 08:12:17;;;;;;;;;;;23.60;27.60;;;;;;5058702;28;19931;-57
2024/01/22 08:14:44;;;;;;;;;;;23.70;27.60;;;;;;5062576;28;19932;-58
2024/01/22 08:17:11;;;;;;;;;;;23.70;27.50;;;;;;5063507;28;19947;-58
2024/01/22 08:19:38;;;;;;;;;;;23.70;27.50;;;;;;5046691;28;20023;-59
2024/01/22 08:22:06;;;;;;;;;;;23.70;27.50;;;;;;5063505;28;19928;-60
2024/01/22 08:24:33;;;;;;;;;;;23.80;27.60;;;;;;5066263;28;19936;-58
2024/01/22 08:27:03;;;;;;;;;;;23.80;27.60;;;;;;5060727;28;20024;-57
2024/01/22 08:29:30;;;;;;;;;;;23.90;27.70;;;;;;5064042;28;20336;-58
2024/01/22 08:31:57;;;;;;;;;;;23.90;27.90;;;;;;5063945;28;19932;-57
2024/01/22 08:34:24;;;;;;;;;;;24.00;27.80;;;;;;5065943;28;19940;-55
2024/01/22 08:36:52;;;;;;;;;;;24.00;27.80;;;;;;5056029;28;19932;-55
2024/01/22 08:39:19;;;;;;;;;;;24.10;27.90;;;;;;5061200;28;19925;-54
2024/01/22 08:41:46;;;;;;;;;;;24.10;27.70;;;;;;5066846;28;19940;-58
2024/01/22 08:44:13;;;;;;;;;;;24.10;27.70;;;;;;5064899;28;20301;-57
2024/01/22 08:46:39;;;;;;;;;;;24.10;27.70;;;;;;5066306;28;19982;-53
2024/01/22 08:49:06;;;;;;;;;;;24.20;27.60;;;;;;5058160;28;20011;-58
2024/01/22 08:51:34;;;;;;;;;;;24.30;27.60;;;;;;5045976;28;19928;-58
2024/01/22 08:54:01;;;;;;;;;;;24.30;27.60;;;;;;5036267;28;19932;-58
2024/01/22 08:56:27;;;;;;;;;;;24.40;27.50;;;;;;5064616;28;20386;-59
2024/01/22 08:58:54;;;;;;;;;;;24.40;27.50;;;;;;5060920;28;19932;-58
2024/01/22 09:01:21;;;;;;;;;;;24.40;27.40;;;;;;5044616;28;19932;-58
2024/01/22 09:03:48;;;;;;;;;;;24.50;27.30;;;;;;5061186;28;19987;-59
2024/01/22 09:06:16;;;;;;;;;;;24.50;27.30;;;;;;5065573;28;19967;-59
2024/01/22 09:08:43;;;;;;;;;;;24.50;27.40;;;;;;5052116;28;19980;-57
2024/01/22 09:11:10;;;;;;;;;;;24.60;27.60;;;;;;5063247;28;20025;-58
2024/01/22 09:13:38;;;;;;;;;;;24.60;27.80;;;;;;5061554;28;19933;-59
2024/01/22 09:16:06;;;;;;;;;;;24.70;27.90;;;;;;5063445;28;19924;-57
2024/01/22 09:18:33;;;;;;;;;;;24.70;27.60;;;;;;5058966;28;19983;-56
2024/01/22 09:21:00;;;;;;;;;;;24.70;27.40;;;;;;5057773;28;20030;-58
2024/01/22 09:23:28;;;;;;;;;;;24.80;27.30;;;;;;5057674;28;20030;-58
2024/01/22 09:25:54;;;;;;;;;;;24.80;27.50;;;;;;5061711;28;19932;-58
2024/01/22 09:28:22;;;;;;;;;;;24.90;27.40;;;;;;5039942;28;20385;-58
2024/01/22 09:30:49;;;;;;;;;;;24.90;27.50;;;;;;5061876;28;20289;-58
2024/01/22 09:33:16;;;;;;;;;;;24.90;27.30;;;;;;5063475;28;19931;-57
2024/01/22 09:35:43;;;;;;;;;;;24.90;27.30;;;;;;5062860;28;20584;-54
2024/01/22 09:38:11;;;;;;;;;;;24.90;27.20;;;;;;5060354;28;19932;-56
2024/01/22 09:40:38;;;;;;;;;;;24.90;27.20;;;;;;5059455;28;19939;-57
2024/01/22 09:43:06;;;;;;;;;;;25.00;27.00;;;;;;5057889;28;19944;-58
2024/01/22 09:45:34;;;;;;;;;;;25.00;26.90;;;;;;5061125;28;20393;-57
2024/01/22 09:48:02;;;;;;;;;;;25.10;27.20;;;;;;5062140;28;19947;-57
2024/01/22 09:50:30;;;;;;;;;;;25.10;27.10;;;;;;5059322;28;19976;-57
2024/01/22 09:52:59;;;;;;;;;;;25.10;26.80;;;;;;5057477;28;19932;-57
2024/01/22 09:55:26;;;;;;;;;;;25.20;27.00;;;;;;5061671;28;20373;-58
2024/01/22 09:57:57;;;;;;;;;;;25.20;27.00;;;;;;5058318;28;20369;-58
2024/01/22 10:00:26;;;;;;;;;;;25.30;27.40;;;;;;5061258;28;20348;-58
2024/01/22 10:02:55;;;;;;;;;;;25.30;27.30;;;;;;5063262;28;19939;-58
2024/01/22 10:05:22;;;;;;;;;;;25.40;27.20;;;;;;5061714;28;19929;-58
2024/01/22 10:07:49;;;;;;;;;;;25.40;27.10;;;;;;5064102;28;20066;-59
2024/01/22 10:10:17;;;;;;;;;;;25.40;27.10;;;;;;5065308;28;20293;-56
2024/01/22 10:12:56;;;;;;;;;;;25.50;26.90;;;;;;5057959;28;20353;-55
2024/01/22 10:15:23;;;;;;;;;;;25.50;26.70;;;;;;5060689;28;20623;-59
2024/01/22 10:17:50;;;;;;;;;;;25.50;26.90;;;;;;5059024;28;20392;-58
2024/01/22 10:20:21;;;;;;;;;;;25.60;26.70;;;;;;5064671;28;20403;-59
2024/01/22 10:22:58;;;;;;;;;;;25.60;26.80;;;;;;5057739;28;19928;-60
2024/01/22 10:25:26;;;;;;;;;;;25.60;27.10;;;;;;5057849;28;20373;-58
2024/01/22 10:28:09;;;;;;;;;;;25.70;27.10;;;;;;5054568;28;19928;-58
2024/01/22 10:30:38;;;;;;;;;;;25.70;26.80;;;;;;5061079;28;19946;-58
2024/01/22 10:33:12;;;;;;;;;;;25.70;26.60;;;;;;5060936;28;19932;-58
2024/01/22 10:35:40;;;;;;;;;;;25.70;26.60;;;;;;5046309;28;19929;-58
2024/01/22 10:38:16;;;;;;;;;;;25.80;26.50;;;;;;5059542;28;20293;-57
2024/01/22 10:40:45;;;;;;;;;;;25.70;26.50;;;;;;5055144;28;20406;-58
2024/01/22 10:43:26;;;;;;;;;;;25.80;26.50;;;;;;5062798;28;19924;-59
2024/01/22 10:45:56;;;;;;;;;;;25.80;26.70;;;;;;5066025;28;20412;-58
2024/01/22 10:48:24;;;;;;;;;;;25.80;26.60;;;;;;5061505;28;19929;-58
2024/01/22 10:51:08;;;;;;;;;;;25.80;26.60;;;;;;5063459;28;19924;-58
2024/01/22 10:53:36;;;;;;;;;;;25.80;26.50;;;;;;5066646;28;19968;-58
2024/01/22 10:56:24;;;;;;;;;;;25.80;26.50;;;;;;5058908;28;19976;-59
2024/01/22 10:58:55;;;;;;;;;;;25.80;26.30;;;;;;5058472;28;19934;-59
2024/01/22 11:01:24;;;;;;;;;;;25.80;26.30;;;;;;5063225;28;20423;-58
2024/01/22 11:03:52;;;;;;;;;;;25.80;26.60;;;;;;5058345;28;19925;-57
2024/01/22 11:06:23;;;;;;;;;;;25.80;26.70;;;;;;5063340;28;19971;-59
2024/01/22 11:08:52;;;;;;;;;;;25.90;26.80;;;;;;5054845;28;19985;-58
2024/01/22 11:11:20;;;;;;;;;;;25.90;27.00;;;;;;5061649;28;19928;-57
2024/01/22 11:13:50;;;;;;;;;;;25.90;27.00;;;;;;5055472;28;19936;-57
2024/01/22 11:16:20;;;;;;;;;;;25.90;27.10;;;;;;5061900;28;19928;-57
2024/01/22 11:19:01;;;;;;;;;;;26.00;27.10;;;;;;5059072;28;19944;-57
2024/01/22 11:21:33;;;;;;;;;;;26.00;27.00;;;;;;5061412;28;19925;-55
2024/01/22 11:24:05;;;;;;;;;;;26.00;27.00;;;;;;5063573;28;19928;-56
2024/01/22 11:26:33;;;;;;;;;;;26.00;27.00;;;;;;5058240;28;20287;-59
2024/01/22 11:29:09;;;;;;;;;;;26.00;27.00;;;;;;5062720;28;20393;-56
2024/01/22 11:31:37;;;;;;;;;;;26.10;27.00;;;;;;5058941;28;20424;-57
2024/01/22 11:34:04;;;;;;;;;;;26.10;27.00;;;;;;5063254;28;20019;-57
2024/01/22 11:36:53;;;;;;;;;;;26.10;27.00;;;;;;5060781;28;19932;-59
2024/01/22 11:39:46;;;;;;;;;;;26.10;27.10;;;;;;5046380;28;19930;-58
2024/01/22 11:42:28;;;;;;;;;;;26.10;27.10;;;;;;5059979;28;19924;-58
2024/01/22 11:44:58;;;;;;;;;;;26.20;27.10;;;;;;5058958;28;19932;-56
2024/01/22 11:47:26;;;;;;;;;;;26.20;27.10;;;;;;5062016;28;20332;-56
2024/01/22 11:50:00;;;;;;;;;;;26.20;27.10;;;;;;5060207;28;19932;-58
2024/01/22 11:52:29;;;;;;;;;;;26.20;27.10;;;;;;5058974;28;19956;-58
2024/01/22 11:55:04;;;;;;;;;;;26.10;27.00;;;;;;5060179;28;19925;-58
2024/01/22 11:57:32;;;;;;;;;;;26.10;27.00;;;;;;5055076;28;20297;-59
2024/01/22 12:00:20;;;;;;;;;;;26.10;27.00;;;;;;5050513;28;20039;-58
2024/01/22 12:02:49;;;;;;;;;;;26.10;27.10;;;;;;5055625;28;19925;-59
2024/01/22 12:05:17;;;;;;;;;;;26.00;27.20;;;;;;5052488;28;19929;-58
2024/01/22 12:07:47;;;;;;;;;;;26.00;27.20;;;;;;5055934;28;19937;-57
2024/01/22 12:10:25;;;;;;;;;;;25.90;27.30;;;;;;5058214;28;20987;-59
2024/01/22 12:12:56;;;;;;;;;;;25.90;27.30;;;;;;5060675;28;19970;-58
2024/01/22 12:15:24;;;;;;;;;;;25.90;27.70;;;;;;5059569;28;19933;-59
2024/01/22 12:17:52;;;;;;;;;;;25.90;27.40;;;;;;5057424;28;19971;-58
2024/01/22 12:20:20;;;;;;;;;;;25.80;27.30;;;;;;5062776;28;20002;-58
2024/01/22 12:23:03;;;;;;;;;;;25.80;27.30;;;;;;5062482;28;20384;-59
2024/01/22 12:25:35;;;;;;;;;;;25.80;27.30;;;;;;5047518;28;20512;-57
2024/01/22 12:28:06;;;;;;;;;;;25.80;27.70;;;;;;5054783;28;19929;-56
2024/01/22 12:30:33;;;;;;;;;;;25.80;27.20;;;;;;5057396;28;19942;-60
2024/01/22 12:33:00;;;;;;;;;;;25.70;27.00;;;;;;5060740;28;19933;-56
2024/01/22 12:35:27;;;;;;;;;;;25.70;26.90;;;;;;5058376;28;19978;-56
2024/01/22 12:37:54;;;;;;;;;;;25.70;26.90;;;;;;5057944;28;19932;-58
2024/01/22 12:40:23;;;;;;;;;;;25.70;26.90;;;;;;5065841;28;20425;-58
2024/01/22 12:42:51;;;;;;;;;;;25.70;26.80;;;;;;5065046;28;19933;-59
2024/01/22 12:45:19;;;;;;;;;;;25.70;26.70;;;;;;5056575;28;19933;-56
2024/01/22 12:47:47;;;;;;;;;;;25.70;26.70;;;;;;5056993;28;19924;-57
2024/01/22 12:50:18;;;;;;;;;;;25.70;26.60;;;;;;5063335;28;19932;-59
2024/01/22 12:52:45;;;;;;;;;;;25.70;26.60;;;;;;5062953;28;19925;-59
2024/01/22 12:55:16;;;;;;;;;;;25.60;26.60;;;;;;5047182;28;19966;-58
2024/01/22 12:57:44;;;;;;;;;;;25.70;26.80;;;;;;5058369;28;19936;-55
2024/01/22 13:00:15;;;;;;;;;;;25.60;26.70;;;;;;5043479;28;19932;-55
2024/01/22 13:02:43;;;;;;;;;;;25.60;26.70;;;;;;5068733;28;19963;-55
2024/01/22 13:05:10;;;;;;;;;;;25.60;26.60;;;;;;5064250;28;19924;-58
2024/01/22 13:07:37;;;;;;;;;;;25.60;26.60;;;;;;5065472;28;19928;-58
2024/01/22 13:10:05;;;;;;;;;;;25.50;26.50;;;;;;5064421;28;19931;-58
2024/01/22 13:12:32;;;;;;;;;;;25.50;26.30;;;;;;5069169;28;19928;-60
2024/01/22 13:14:59;;;;;;;;;;;25.50;26.30;;;;;;5068887;28;19972;-59
2024/01/22 13:17:26;;;;;;;;;;;25.50;26.30;;;;;;5071076;28;19931;-58
2024/01/22 13:19:54;;;;;;;;;;;25.50;26.80;;;;;;5062905;28;19943;-58
2024/01/22 13:22:21;;;;;;;;;;;25.50;26.30;;;;;;5061254;28;20385;-58
2024/01/22 13:24:49;;;;;;;;;;;25.40;26.30;;;;;;5067646;28;19933;-58
2024/01/22 13:27:17;;;;;;;;;;;25.40;26.40;;;;;;5064358;28;19933;-57
2024/01/22 13:29:44;;;;;;;;;;;25.40;26.40;;;;;;5048205;28;20027;-60
2024/01/22 13:32:12;;;;;;;;;;;25.40;26.80;;;;;;5068335;28;20046;-58
2024/01/22 13:34:40;;;;;;;;;;;25.40;26.50;;;;;;5069454;28;19924;-60
2024/01/22 13:37:07;;;;;;;;;;;25.40;26.50;;;;;;5064054;28;19924;-59
2024/01/22 13:39:35;;;;;;;;;;;25.40;26.50;;;;;;5062681;28;19936;-58
2024/01/22 13:42:10;;;;;;;;;;;25.30;26.40;;;;;;5063612;28;19928;-59
2024/01/22 13:44:37;;;;;;;;;;;25.30;26.40;;;;;;5067475;28;19925;-65
2024/01/22 13:47:04;;;;;;;;;;;25.30;26.30;;;;;;5063919;28;19932;-61
2024/01/22 13:49:43;;;;;;;;;;;25.30;26.40;;;;;;5059859;28;20328;-59
2024/01/22 13:52:10;;;;;;;;;;;25.20;26.40;;;;;;5064409;28;19928;-63
2024/01/22 13:54:42;;;;;;;;;;;25.20;26.50;;;;;;5061765;28;21564;-58
2024/01/22 13:57:11;;;;;;;;;;;25.20;26.50;;;;;;5056568;28;19978;-61
2024/01/22 13:59:39;;;;;;;;;;;25.20;26.50;;;;;;5064855;28;20425;-60
2024/01/22 14:02:07;;;;;;;;;;;25.10;26.60;;;;;;5065239;28;19933;-65
2024/01/22 14:04:34;;;;;;;;;;;25.10;26.60;;;;;;5063826;28;19951;-62
2024/01/22 14:07:02;;;;;;;;;;;25.10;26.70;;;;;;5059107;28;19925;-61
2024/01/22 14:09:30;;;;;;;;;;;25.10;26.80;;;;;;5061071;28;19935;-56
2024/01/22 14:11:57;;;;;;;;;;;25.10;26.90;;;;;;5044961;28;20024;-58
2024/01/22 14:14:25;;;;;;;;;;;25.00;25.50;;;;;;5066811;28;20023;-61
2024/01/22 14:17:02;;;;;;;;;;;25.00;26.40;;;;;;5066741;28;19933;-61
2024/01/22 14:19:32;;;;;;;;;;;24.90;26.60;;;;;;5064113;28;19928;-61
2024/01/22 14:21:59;;;;;;;;;;;24.90;26.70;;;;;;5063108;28;19989;-56
2024/01/22 14:24:27;;;;;;;;;;;24.80;26.70;;;;;;5046811;28;20274;-54
2024/01/22 14:26:55;;;;;;;;;;;24.80;26.70;;;;;;5065843;28;19940;-57